sensor_id;sensor_type;location;lat;lon;timestamp;P1;durP1;ratioP1;P2;durP2;ratioP2
15358;SDS011;7779;49.596;11.070;2023-03-01T00:02:20;10.83;;;7.73;;
15358;SDS011;7779;49.596;11.070;2023-03-01T00:04:46;11.00;;;8.23;;
15358;SDS011;7779;49.596;11.070;2023-03-01T00:07:12;10.53;;;8.23;;
15358;SDS011;7779;49.596;11.070;2023-03-01T00:09:38;12.33;;;7.67;;
15358;SDS011;7779;49.596;11.070;2023-03-01T00:12:05;11.23;;;8.57;;
15358;SDS011;7779;49.596;11.070;2023-03-01T00:14:31;10.67;;;7.80;;
15358;SDS011;7779;49.596;11.070;2023-03-01T00:16:57;11.87;;;8.07;;
15358;SDS011;7779;49.596;11.070;2023-03-01T00:19:23;10.67;;;7.77;;
15358;SDS011;7779;49.596;11.070;2023-03-01T00:21:49;11.17;;;8.47;;
15358;SDS011;7779;49.596;11.070;2023-03-01T00:24:15;12.00;;;8.10;;
15358;SDS011;7779;49.596;11.070;2023-03-01T00:26:40;11.20;;;7.70;;
15358;SDS011;7779;49.596;11.070;2023-03-01T00:29:06;11.83;;;8.50;;
15358;SDS011;7779;49.596;11.070;2023-03-01T00:31:33;10.43;;;8.57;;
15358;SDS011;7779;49.596;11.070;2023-03-01T00:34:00;11.90;;;8.53;;
15358;SDS011;7779;49.596;11.070;2023-03-01T00:36:29;11.40;;;8.70;;
15358;SDS011;7779;49.596;11.070;2023-03-01T00:38:59;11.83;;;8.27;;
15358;SDS011;7779;49.596;11.070;2023-03-01T00:41:25;11.10;;;8.53;;
15358;SDS011;7779;49.596;11.070;2023-03-01T00:43:52;11.40;;;7.80;;
15358;SDS011;7779;49.596;11.070;2023-03-01T00:46:19;11.10;;;8.90;;
15358;SDS011;7779;49.596;11.070;2023-03-01T00:48:48;10.40;;;8.13;;
15358;SDS011;7779;49.596;11.070;2023-03-01T00:51:20;11.40;;;8.27;;
15358;SDS011;7779;49.596;11.070;2023-03-01T00:53:53;11.90;;;8.53;;
15358;SDS011;7779;49.596;11.070;2023-03-01T00:56:22;11.07;;;8.67;;
15358;SDS011;7779;49.596;11.070;2023-03-01T00:58:48;9.90;;;7.87;;
15358;SDS011;7779;49.596;11.070;2023-03-01T01:01:15;11.03;;;7.87;;
15358;SDS011;7779;49.596;11.070;2023-03-01T01:04:01;9.97;;;7.67;;
15358;SDS011;7779;49.596;11.070;2023-03-01T01:06:32;12.00;;;7.87;;
15358;SDS011;7779;49.596;11.070;2023-03-01T01:09:10;9.17;;;8.07;;
15358;SDS011;7779;49.596;11.070;2023-03-01T01:11:42;11.23;;;8.33;;
15358;SDS011;7779;49.596;11.070;2023-03-01T01:14:14;10.10;;;7.83;;
15358;SDS011;7779;49.596;11.070;2023-03-01T01:16:41;11.40;;;8.50;;
15358;SDS011;7779;49.596;11.070;2023-03-01T01:19:08;11.13;;;8.60;;
15358;SDS011;7779;49.596;11.070;2023-03-01T01:21:36;11.17;;;8.10;;
15358;SDS011;7779;49.596;11.070;2023-03-01T01:24:02;11.63;;;8.90;;
15358;SDS011;7779;49.596;11.070;2023-03-01T01:26:31;12.27;;;8.27;;
15358;SDS011;7779;49.596;11.070;2023-03-01T01:28:59;11.10;;;7.97;;
15358;SDS011;7779;49.596;11.070;2023-03-01T01:31:27;10.07;;;8.03;;
15358;SDS011;7779;49.596;11.070;2023-03-01T01:33:54;8.83;;;7.77;;
15358;SDS011;7779;49.596;11.070;2023-03-01T01:36:21;10.13;;;8.27;;
15358;SDS011;7779;49.596;11.070;2023-03-01T01:38:47;9.83;;;7.67;;
15358;SDS011;7779;49.596;11.070;2023-03-01T01:41:16;11.50;;;8.40;;
15358;SDS011;7779;49.596;11.070;2023-03-01T01:43:45;10.17;;;8.13;;
15358;SDS011;7779;49.596;11.070;2023-03-01T01:46:36;11.20;;;8.23;;
15358;SDS011;7779;49.596;11.070;2023-03-01T01:51:55;11.77;;;8.77;;
15358;SDS011;7779;49.596;11.070;2023-03-01T01:57:21;10.50;;;8.10;;
15358;SDS011;7779;49.596;11.070;2023-03-01T01:59:54;11.30;;;8.43;;
15358;SDS011;7779;49.596;11.070;2023-03-01T02:02:24;11.67;;;9.00;;
15358;SDS011;7779;49.596;11.070;2023-03-01T02:04:52;11.90;;;8.73;;
15358;SDS011;7779;49.596;11.070;2023-03-01T02:07:34;11.07;;;8.13;;
15358;SDS011;7779;49.596;11.070;2023-03-01T02:10:01;11.07;;;8.77;;
15358;SDS011;7779;49.596;11.070;2023-03-01T02:12:27;11.30;;;8.90;;
15358;SDS011;7779;49.596;11.070;2023-03-01T02:14:54;12.07;;;8.73;;
15358;SDS011;7779;49.596;11.070;2023-03-01T02:17:20;9.50;;;8.17;;
15358;SDS011;7779;49.596;11.070;2023-03-01T02:22:35;12.33;;;8.90;;
15358;SDS011;7779;49.596;11.070;2023-03-01T02:28:24;13.70;;;8.20;;
15358;SDS011;7779;49.596;11.070;2023-03-01T02:30:55;11.17;;;8.17;;
15358;SDS011;7779;49.596;11.070;2023-03-01T02:33:39;10.47;;;8.10;;
15358;SDS011;7779;49.596;11.070;2023-03-01T02:36:12;10.80;;;7.83;;
15358;SDS011;7779;49.596;11.070;2023-03-01T02:38:44;11.67;;;8.53;;
15358;SDS011;7779;49.596;11.070;2023-03-01T02:41:10;10.83;;;8.80;;
15358;SDS011;7779;49.596;11.070;2023-03-01T02:43:41;10.27;;;7.67;;
15358;SDS011;7779;49.596;11.070;2023-03-01T02:46:12;11.13;;;8.23;;
15358;SDS011;7779;49.596;11.070;2023-03-01T02:48:51;11.90;;;8.00;;
15358;SDS011;7779;49.596;11.070;2023-03-01T02:56:47;13.47;;;7.80;;
15358;SDS011;7779;49.596;11.070;2023-03-01T02:59:16;11.30;;;8.47;;
15358;SDS011;7779;49.596;11.070;2023-03-01T03:01:47;10.27;;;8.03;;
15358;SDS011;7779;49.596;11.070;2023-03-01T03:04:17;10.47;;;8.20;;
15358;SDS011;7779;49.596;11.070;2023-03-01T03:06:48;10.23;;;7.80;;
15358;SDS011;7779;49.596;11.070;2023-03-01T03:09:16;11.17;;;8.67;;
15358;SDS011;7779;49.596;11.070;2023-03-01T03:11:43;10.60;;;8.10;;
15358;SDS011;7779;49.596;11.070;2023-03-01T03:14:10;9.57;;;7.77;;
15358;SDS011;7779;49.596;11.070;2023-03-01T03:16:46;11.00;;;7.37;;
15358;SDS011;7779;49.596;11.070;2023-03-01T03:19:14;11.83;;;7.60;;
15358;SDS011;7779;49.596;11.070;2023-03-01T03:21:43;9.17;;;7.00;;
15358;SDS011;7779;49.596;11.070;2023-03-01T03:24:09;10.13;;;7.97;;
15358;SDS011;7779;49.596;11.070;2023-03-01T03:26:35;9.83;;;7.80;;
15358;SDS011;7779;49.596;11.070;2023-03-01T03:29:01;8.77;;;7.63;;
15358;SDS011;7779;49.596;11.070;2023-03-01T03:31:27;9.60;;;7.60;;
15358;SDS011;7779;49.596;11.070;2023-03-01T03:33:53;9.73;;;7.10;;
15358;SDS011;7779;49.596;11.070;2023-03-01T03:36:20;9.77;;;7.43;;
15358;SDS011;7779;49.596;11.070;2023-03-01T03:38:49;10.20;;;7.30;;
15358;SDS011;7779;49.596;11.070;2023-03-01T03:41:14;10.50;;;8.07;;
15358;SDS011;7779;49.596;11.070;2023-03-01T03:43:41;11.50;;;7.97;;
15358;SDS011;7779;49.596;11.070;2023-03-01T03:46:08;10.17;;;7.23;;
15358;SDS011;7779;49.596;11.070;2023-03-01T03:48:37;11.20;;;8.60;;
15358;SDS011;7779;49.596;11.070;2023-03-01T03:51:12;9.67;;;7.47;;
15358;SDS011;7779;49.596;11.070;2023-03-01T03:53:40;10.23;;;7.80;;
15358;SDS011;7779;49.596;11.070;2023-03-01T03:56:07;10.00;;;7.53;;
15358;SDS011;7779;49.596;11.070;2023-03-01T03:58:33;10.33;;;7.73;;
15358;SDS011;7779;49.596;11.070;2023-03-01T04:00:59;10.50;;;7.30;;
15358;SDS011;7779;49.596;11.070;2023-03-01T04:03:26;11.50;;;8.43;;
15358;SDS011;7779;49.596;11.070;2023-03-01T04:05:54;10.00;;;7.47;;
15358;SDS011;7779;49.596;11.070;2023-03-01T04:08:25;9.90;;;7.27;;
15358;SDS011;7779;49.596;11.070;2023-03-01T04:10:52;8.73;;;7.43;;
15358;SDS011;7779;49.596;11.070;2023-03-01T04:13:45;12.20;;;7.97;;
15358;SDS011;7779;49.596;11.070;2023-03-01T04:16:11;9.73;;;7.83;;
15358;SDS011;7779;49.596;11.070;2023-03-01T04:18:36;10.40;;;7.60;;
15358;SDS011;7779;49.596;11.070;2023-03-01T04:21:02;9.47;;;7.57;;
15358;SDS011;7779;49.596;11.070;2023-03-01T04:23:28;11.27;;;8.53;;
15358;SDS011;7779;49.596;11.070;2023-03-01T04:25:55;12.47;;;8.53;;
15358;SDS011;7779;49.596;11.070;2023-03-01T04:28:27;9.73;;;7.67;;
15358;SDS011;7779;49.596;11.070;2023-03-01T04:30:56;9.73;;;8.13;;
15358;SDS011;7779;49.596;11.070;2023-03-01T04:33:24;12.33;;;8.53;;
15358;SDS011;7779;49.596;11.070;2023-03-01T04:35:50;11.13;;;7.77;;
15358;SDS011;7779;49.596;11.070;2023-03-01T04:38:17;10.13;;;8.00;;
15358;SDS011;7779;49.596;11.070;2023-03-01T04:40:43;12.17;;;9.30;;
15358;SDS011;7779;49.596;11.070;2023-03-01T04:43:10;10.13;;;7.87;;
15358;SDS011;7779;49.596;11.070;2023-03-01T04:45:39;10.97;;;8.40;;
15358;SDS011;7779;49.596;11.070;2023-03-01T04:48:05;11.93;;;8.67;;
15358;SDS011;7779;49.596;11.070;2023-03-01T04:50:31;11.50;;;8.97;;
15358;SDS011;7779;49.596;11.070;2023-03-01T04:52:57;10.67;;;8.57;;
15358;SDS011;7779;49.596;11.070;2023-03-01T04:55:24;10.13;;;7.83;;
15358;SDS011;7779;49.596;11.070;2023-03-01T04:57:51;12.73;;;8.63;;
15358;SDS011;7779;49.596;11.070;2023-03-01T05:00:18;9.73;;;8.07;;
15358;SDS011;7779;49.596;11.070;2023-03-01T05:02:45;9.57;;;7.80;;
15358;SDS011;7779;49.596;11.070;2023-03-01T05:05:28;12.10;;;8.10;;
15358;SDS011;7779;49.596;11.070;2023-03-01T05:07:59;10.40;;;8.03;;
15358;SDS011;7779;49.596;11.070;2023-03-01T05:10:30;9.77;;;7.87;;
15358;SDS011;7779;49.596;11.070;2023-03-01T05:12:58;10.40;;;8.77;;
15358;SDS011;7779;49.596;11.070;2023-03-01T05:15:28;15.70;;;10.43;;
15358;SDS011;7779;49.596;11.070;2023-03-01T05:17:57;11.70;;;8.60;;
15358;SDS011;7779;49.596;11.070;2023-03-01T05:20:25;13.87;;;9.40;;
15358;SDS011;7779;49.596;11.070;2023-03-01T05:22:55;12.93;;;9.50;;
15358;SDS011;7779;49.596;11.070;2023-03-01T05:25:24;17.57;;;13.20;;
15358;SDS011;7779;49.596;11.070;2023-03-01T05:27:50;21.23;;;14.43;;
15358;SDS011;7779;49.596;11.070;2023-03-01T05:30:16;25.27;;;17.43;;
15358;SDS011;7779;49.596;11.070;2023-03-01T05:32:44;20.03;;;14.50;;
15358;SDS011;7779;49.596;11.070;2023-03-01T05:35:13;17.87;;;11.23;;
15358;SDS011;7779;49.596;11.070;2023-03-01T05:37:42;16.63;;;10.40;;
15358;SDS011;7779;49.596;11.070;2023-03-01T05:40:12;16.43;;;11.40;;
15358;SDS011;7779;49.596;11.070;2023-03-01T05:42:45;15.30;;;10.60;;
15358;SDS011;7779;49.596;11.070;2023-03-01T05:45:13;16.53;;;10.47;;
15358;SDS011;7779;49.596;11.070;2023-03-01T05:47:41;13.37;;;10.30;;
15358;SDS011;7779;49.596;11.070;2023-03-01T05:50:15;14.43;;;9.90;;
15358;SDS011;7779;49.596;11.070;2023-03-01T05:53:08;12.77;;;8.87;;
15358;SDS011;7779;49.596;11.070;2023-03-01T05:55:37;13.73;;;9.63;;
15358;SDS011;7779;49.596;11.070;2023-03-01T05:58:04;14.77;;;9.27;;
15358;SDS011;7779;49.596;11.070;2023-03-01T06:00:34;13.47;;;9.40;;
15358;SDS011;7779;49.596;11.070;2023-03-01T06:03:00;12.90;;;8.93;;
15358;SDS011;7779;49.596;11.070;2023-03-01T06:05:27;10.77;;;8.27;;
15358;SDS011;7779;49.596;11.070;2023-03-01T06:07:53;12.73;;;8.87;;
15358;SDS011;7779;49.596;11.070;2023-03-01T06:10:20;12.50;;;9.47;;
15358;SDS011;7779;49.596;11.070;2023-03-01T06:12:47;13.30;;;9.20;;
15358;SDS011;7779;49.596;11.070;2023-03-01T06:15:14;12.83;;;8.67;;
15358;SDS011;7779;49.596;11.070;2023-03-01T06:17:42;15.47;;;8.67;;
15358;SDS011;7779;49.596;11.070;2023-03-01T06:20:13;12.73;;;9.00;;
15358;SDS011;7779;49.596;11.070;2023-03-01T06:22:43;15.13;;;9.17;;
15358;SDS011;7779;49.596;11.070;2023-03-01T06:25:10;10.97;;;8.73;;
15358;SDS011;7779;49.596;11.070;2023-03-01T06:27:37;10.53;;;7.57;;
15358;SDS011;7779;49.596;11.070;2023-03-01T06:30:04;19.70;;;11.60;;
15358;SDS011;7779;49.596;11.070;2023-03-01T06:32:32;13.80;;;10.70;;
15358;SDS011;7779;49.596;11.070;2023-03-01T06:34:57;13.23;;;10.07;;
15358;SDS011;7779;49.596;11.070;2023-03-01T06:37:24;13.23;;;9.80;;
15358;SDS011;7779;49.596;11.070;2023-03-01T06:39:50;12.90;;;9.30;;
15358;SDS011;7779;49.596;11.070;2023-03-01T06:42:16;15.50;;;8.93;;
15358;SDS011;7779;49.596;11.070;2023-03-01T06:44:42;16.07;;;9.57;;
15358;SDS011;7779;49.596;11.070;2023-03-01T06:47:09;24.60;;;10.67;;
15358;SDS011;7779;49.596;11.070;2023-03-01T06:49:34;13.63;;;9.50;;
15358;SDS011;7779;49.596;11.070;2023-03-01T06:52:00;14.53;;;9.20;;
15358;SDS011;7779;49.596;11.070;2023-03-01T06:54:26;13.40;;;8.37;;
15358;SDS011;7779;49.596;11.070;2023-03-01T06:56:51;12.87;;;9.43;;
15358;SDS011;7779;49.596;11.070;2023-03-01T06:59:17;12.63;;;8.50;;
15358;SDS011;7779;49.596;11.070;2023-03-01T07:01:44;12.13;;;8.67;;
15358;SDS011;7779;49.596;11.070;2023-03-01T07:04:10;13.47;;;9.60;;
15358;SDS011;7779;49.596;11.070;2023-03-01T07:06:38;12.00;;;8.87;;
15358;SDS011;7779;49.596;11.070;2023-03-01T07:09:04;11.03;;;8.53;;
15358;SDS011;7779;49.596;11.070;2023-03-01T07:11:30;12.17;;;8.27;;
15358;SDS011;7779;49.596;11.070;2023-03-01T07:13:56;11.37;;;8.77;;
15358;SDS011;7779;49.596;11.070;2023-03-01T07:16:23;11.53;;;8.57;;
15358;SDS011;7779;49.596;11.070;2023-03-01T07:18:49;11.10;;;8.33;;
15358;SDS011;7779;49.596;11.070;2023-03-01T07:21:14;10.60;;;8.10;;
15358;SDS011;7779;49.596;11.070;2023-03-01T07:23:41;10.63;;;8.30;;
15358;SDS011;7779;49.596;11.070;2023-03-01T07:26:07;10.77;;;8.43;;
15358;SDS011;7779;49.596;11.070;2023-03-01T07:28:33;12.27;;;9.43;;
15358;SDS011;7779;49.596;11.070;2023-03-01T07:31:03;15.30;;;12.63;;
15358;SDS011;7779;49.596;11.070;2023-03-01T07:33:31;13.33;;;9.87;;
15358;SDS011;7779;49.596;11.070;2023-03-01T07:35:57;12.50;;;9.53;;
15358;SDS011;7779;49.596;11.070;2023-03-01T07:38:25;11.40;;;9.53;;
15358;SDS011;7779;49.596;11.070;2023-03-01T07:40:52;12.47;;;8.77;;
15358;SDS011;7779;49.596;11.070;2023-03-01T07:43:18;10.10;;;8.87;;
15358;SDS011;7779;49.596;11.070;2023-03-01T07:45:45;11.40;;;8.47;;
15358;SDS011;7779;49.596;11.070;2023-03-01T07:48:11;11.60;;;8.80;;
15358;SDS011;7779;49.596;11.070;2023-03-01T07:50:37;11.77;;;8.57;;
15358;SDS011;7779;49.596;11.070;2023-03-01T07:53:02;12.63;;;8.97;;
15358;SDS011;7779;49.596;11.070;2023-03-01T07:55:29;15.73;;;9.30;;
15358;SDS011;7779;49.596;11.070;2023-03-01T07:57:55;16.00;;;9.30;;
15358;SDS011;7779;49.596;11.070;2023-03-01T08:00:21;12.47;;;9.20;;
15358;SDS011;7779;49.596;11.070;2023-03-01T08:02:46;12.37;;;9.10;;
15358;SDS011;7779;49.596;11.070;2023-03-01T08:05:12;12.07;;;8.90;;
15358;SDS011;7779;49.596;11.070;2023-03-01T08:07:38;16.00;;;9.87;;
15358;SDS011;7779;49.596;11.070;2023-03-01T08:10:04;12.93;;;9.23;;
15358;SDS011;7779;49.596;11.070;2023-03-01T08:12:30;13.00;;;10.60;;
15358;SDS011;7779;49.596;11.070;2023-03-01T08:14:55;16.27;;;11.43;;
15358;SDS011;7779;49.596;11.070;2023-03-01T08:17:21;17.97;;;9.17;;
15358;SDS011;7779;49.596;11.070;2023-03-01T08:19:48;12.30;;;9.50;;
15358;SDS011;7779;49.596;11.070;2023-03-01T08:22:13;14.77;;;10.60;;
15358;SDS011;7779;49.596;11.070;2023-03-01T08:24:39;13.53;;;10.27;;
15358;SDS011;7779;49.596;11.070;2023-03-01T08:27:05;12.90;;;9.83;;
15358;SDS011;7779;49.596;11.070;2023-03-01T08:29:31;13.90;;;10.00;;
15358;SDS011;7779;49.596;11.070;2023-03-01T08:31:57;12.33;;;9.60;;
15358;SDS011;7779;49.596;11.070;2023-03-01T08:34:23;12.83;;;9.47;;
15358;SDS011;7779;49.596;11.070;2023-03-01T08:36:49;12.67;;;9.93;;
15358;SDS011;7779;49.596;11.070;2023-03-01T08:39:16;13.27;;;9.73;;
15358;SDS011;7779;49.596;11.070;2023-03-01T08:41:44;13.87;;;10.00;;
15358;SDS011;7779;49.596;11.070;2023-03-01T08:44:11;12.87;;;9.50;;
15358;SDS011;7779;49.596;11.070;2023-03-01T08:46:43;14.90;;;9.93;;
15358;SDS011;7779;49.596;11.070;2023-03-01T08:49:14;16.10;;;10.90;;
15358;SDS011;7779;49.596;11.070;2023-03-01T08:51:42;11.97;;;9.03;;
15358;SDS011;7779;49.596;11.070;2023-03-01T08:54:10;12.60;;;10.17;;
15358;SDS011;7779;49.596;11.070;2023-03-01T08:56:40;14.73;;;10.67;;
15358;SDS011;7779;49.596;11.070;2023-03-01T08:59:07;14.03;;;10.97;;
15358;SDS011;7779;49.596;11.070;2023-03-01T09:01:34;12.80;;;10.23;;
15358;SDS011;7779;49.596;11.070;2023-03-01T09:03:59;14.23;;;10.00;;
15358;SDS011;7779;49.596;11.070;2023-03-01T09:06:25;14.17;;;10.17;;
15358;SDS011;7779;49.596;11.070;2023-03-01T09:08:51;12.13;;;8.90;;
15358;SDS011;7779;49.596;11.070;2023-03-01T09:11:18;12.70;;;9.50;;
15358;SDS011;7779;49.596;11.070;2023-03-01T09:13:46;12.40;;;9.27;;
15358;SDS011;7779;49.596;11.070;2023-03-01T09:16:14;13.67;;;10.00;;
15358;SDS011;7779;49.596;11.070;2023-03-01T09:18:44;14.47;;;9.90;;
15358;SDS011;7779;49.596;11.070;2023-03-01T09:21:15;12.13;;;9.00;;
15358;SDS011;7779;49.596;11.070;2023-03-01T09:23:44;12.17;;;8.83;;
15358;SDS011;7779;49.596;11.070;2023-03-01T09:26:13;11.07;;;8.87;;
15358;SDS011;7779;49.596;11.070;2023-03-01T09:28:47;12.23;;;9.93;;
15358;SDS011;7779;49.596;11.070;2023-03-01T09:31:21;13.40;;;9.40;;
15358;SDS011;7779;49.596;11.070;2023-03-01T09:33:50;13.00;;;8.50;;
15358;SDS011;7779;49.596;11.070;2023-03-01T09:36:19;14.40;;;9.00;;
15358;SDS011;7779;49.596;11.070;2023-03-01T09:38:48;14.50;;;9.47;;
15358;SDS011;7779;49.596;11.070;2023-03-01T09:46:58;12.23;;;9.20;;
15358;SDS011;7779;49.596;11.070;2023-03-01T09:49:25;14.67;;;8.70;;
15358;SDS011;7779;49.596;11.070;2023-03-01T09:54:55;13.27;;;9.23;;
15358;SDS011;7779;49.596;11.070;2023-03-01T09:57:38;11.53;;;9.33;;
15358;SDS011;7779;49.596;11.070;2023-03-01T10:00:41;11.87;;;9.27;;
15358;SDS011;7779;49.596;11.070;2023-03-01T10:05:56;13.60;;;8.73;;
15358;SDS011;7779;49.596;11.070;2023-03-01T10:08:40;12.73;;;9.07;;
15358;SDS011;7779;49.596;11.070;2023-03-01T10:11:29;11.83;;;8.43;;
15358;SDS011;7779;49.596;11.070;2023-03-01T10:17:19;11.03;;;8.67;;
15358;SDS011;7779;49.596;11.070;2023-03-01T10:20:10;11.07;;;8.50;;
15358;SDS011;7779;49.596;11.070;2023-03-01T10:22:49;11.93;;;8.50;;
15358;SDS011;7779;49.596;11.070;2023-03-01T10:26:03;10.37;;;7.97;;
15358;SDS011;7779;49.596;11.070;2023-03-01T10:31:02;11.60;;;8.23;;
15358;SDS011;7779;49.596;11.070;2023-03-01T10:33:32;10.10;;;8.20;;
15358;SDS011;7779;49.596;11.070;2023-03-01T10:36:04;11.67;;;8.37;;
15358;SDS011;7779;49.596;11.070;2023-03-01T10:38:33;10.57;;;9.20;;
15358;SDS011;7779;49.596;11.070;2023-03-01T10:41:23;11.00;;;8.00;;
15358;SDS011;7779;49.596;11.070;2023-03-01T10:43:56;9.87;;;7.53;;
15358;SDS011;7779;49.596;11.070;2023-03-01T10:46:32;10.30;;;8.60;;
15358;SDS011;7779;49.596;11.070;2023-03-01T10:49:12;13.50;;;8.90;;
15358;SDS011;7779;49.596;11.070;2023-03-01T10:51:46;10.73;;;8.47;;
15358;SDS011;7779;49.596;11.070;2023-03-01T10:56:56;10.97;;;8.50;;
15358;SDS011;7779;49.596;11.070;2023-03-01T11:00:00;12.43;;;8.47;;
15358;SDS011;7779;49.596;11.070;2023-03-01T11:02:48;10.47;;;8.33;;
15358;SDS011;7779;49.596;11.070;2023-03-01T11:05:35;13.63;;;8.73;;
15358;SDS011;7779;49.596;11.070;2023-03-01T11:08:01;11.20;;;8.60;;
15358;SDS011;7779;49.596;11.070;2023-03-01T11:10:29;12.07;;;8.90;;
15358;SDS011;7779;49.596;11.070;2023-03-01T11:13:08;10.10;;;7.87;;
15358;SDS011;7779;49.596;11.070;2023-03-01T11:16:06;11.23;;;8.70;;
15358;SDS011;7779;49.596;11.070;2023-03-01T11:18:37;12.87;;;9.07;;
15358;SDS011;7779;49.596;11.070;2023-03-01T11:21:02;11.70;;;8.10;;
15358;SDS011;7779;49.596;11.070;2023-03-01T11:23:31;11.77;;;9.13;;
15358;SDS011;7779;49.596;11.070;2023-03-01T11:26:02;12.07;;;8.10;;
15358;SDS011;7779;49.596;11.070;2023-03-01T11:28:33;12.47;;;8.37;;
15358;SDS011;7779;49.596;11.070;2023-03-01T11:31:06;12.23;;;8.53;;
15358;SDS011;7779;49.596;11.070;2023-03-01T11:42:04;11.47;;;8.57;;
15358;SDS011;7779;49.596;11.070;2023-03-01T11:44:40;12.17;;;8.50;;
15358;SDS011;7779;49.596;11.070;2023-03-01T11:47:19;11.90;;;8.80;;
15358;SDS011;7779;49.596;11.070;2023-03-01T11:50:07;11.70;;;8.50;;
15358;SDS011;7779;49.596;11.070;2023-03-01T11:56:09;10.30;;;7.77;;
15358;SDS011;7779;49.596;11.070;2023-03-01T12:01:57;9.77;;;7.83;;
15358;SDS011;7779;49.596;11.070;2023-03-01T12:05:08;11.13;;;7.97;;
15358;SDS011;7779;49.596;11.070;2023-03-01T12:19:24;12.10;;;7.50;;
15358;SDS011;7779;49.596;11.070;2023-03-01T12:22:20;11.47;;;7.57;;
15358;SDS011;7779;49.596;11.070;2023-03-01T12:27:37;10.93;;;8.20;;
15358;SDS011;7779;49.596;11.070;2023-03-01T12:30:35;12.07;;;8.27;;
15358;SDS011;7779;49.596;11.070;2023-03-01T12:33:39;9.93;;;7.10;;
15358;SDS011;7779;49.596;11.070;2023-03-01T12:39:28;9.87;;;7.70;;
15358;SDS011;7779;49.596;11.070;2023-03-01T12:42:16;10.83;;;7.73;;
15358;SDS011;7779;49.596;11.070;2023-03-01T12:45:16;9.50;;;7.73;;
15358;SDS011;7779;49.596;11.070;2023-03-01T12:48:03;11.00;;;7.83;;
15358;SDS011;7779;49.596;11.070;2023-03-01T12:50:51;10.17;;;7.70;;
15358;SDS011;7779;49.596;11.070;2023-03-01T12:53:24;11.93;;;7.93;;
15358;SDS011;7779;49.596;11.070;2023-03-01T12:55:53;11.47;;;8.47;;
15358;SDS011;7779;49.596;11.070;2023-03-01T12:58:31;11.87;;;8.67;;
15358;SDS011;7779;49.596;11.070;2023-03-01T13:01:38;11.00;;;7.87;;
15358;SDS011;7779;49.596;11.070;2023-03-01T13:07:27;9.60;;;7.80;;
15358;SDS011;7779;49.596;11.070;2023-03-01T13:15:47;12.83;;;8.47;;
15358;SDS011;7779;49.596;11.070;2023-03-01T13:28:40;12.30;;;8.03;;
15358;SDS011;7779;49.596;11.070;2023-03-01T13:33:50;9.57;;;7.50;;
15358;SDS011;7779;49.596;11.070;2023-03-01T13:38:56;10.70;;;8.27;;
15358;SDS011;7779;49.596;11.070;2023-03-01T13:41:49;14.60;;;10.07;;
15358;SDS011;7779;49.596;11.070;2023-03-01T13:44:22;18.77;;;11.73;;
15358;SDS011;7779;49.596;11.070;2023-03-01T13:52:32;11.80;;;8.50;;
15358;SDS011;7779;49.596;11.070;2023-03-01T13:55:19;11.87;;;8.77;;
15358;SDS011;7779;49.596;11.070;2023-03-01T13:57:52;12.67;;;9.23;;
15358;SDS011;7779;49.596;11.070;2023-03-01T14:05:59;11.80;;;8.20;;
15358;SDS011;7779;49.596;11.070;2023-03-01T14:08:33;14.63;;;9.33;;
15358;SDS011;7779;49.596;11.070;2023-03-01T14:17:30;10.50;;;8.60;;
15358;SDS011;7779;49.596;11.070;2023-03-01T14:20:40;10.37;;;8.63;;
15358;SDS011;7779;49.596;11.070;2023-03-01T14:23:11;10.20;;;8.13;;
15358;SDS011;7779;49.596;11.070;2023-03-01T14:25:46;10.90;;;8.63;;
15358;SDS011;7779;49.596;11.070;2023-03-01T14:28:29;10.50;;;8.53;;
15358;SDS011;7779;49.596;11.070;2023-03-01T14:31:02;9.10;;;7.83;;
15358;SDS011;7779;49.596;11.070;2023-03-01T14:36:05;9.07;;;7.50;;
15358;SDS011;7779;49.596;11.070;2023-03-01T14:38:36;10.60;;;7.73;;
15358;SDS011;7779;49.596;11.070;2023-03-01T14:41:23;9.70;;;7.90;;
15358;SDS011;7779;49.596;11.070;2023-03-01T14:43:55;9.43;;;7.30;;
15358;SDS011;7779;49.596;11.070;2023-03-01T14:46:26;13.00;;;8.10;;
15358;SDS011;7779;49.596;11.070;2023-03-01T14:49:02;8.47;;;7.03;;
15358;SDS011;7779;49.596;11.070;2023-03-01T14:51:41;9.70;;;6.87;;
15358;SDS011;7779;49.596;11.070;2023-03-01T14:54:21;11.57;;;6.83;;
15358;SDS011;7779;49.596;11.070;2023-03-01T14:56:53;12.43;;;7.10;;
15358;SDS011;7779;49.596;11.070;2023-03-01T14:59:24;16.93;;;7.83;;
15358;SDS011;7779;49.596;11.070;2023-03-01T15:01:51;13.87;;;6.57;;
15358;SDS011;7779;49.596;11.070;2023-03-01T15:04:21;11.57;;;7.07;;
15358;SDS011;7779;49.596;11.070;2023-03-01T15:06:52;9.20;;;6.77;;
15358;SDS011;7779;49.596;11.070;2023-03-01T15:09:20;9.27;;;7.27;;
15358;SDS011;7779;49.596;11.070;2023-03-01T15:11:47;9.90;;;6.97;;
15358;SDS011;7779;49.596;11.070;2023-03-01T15:14:38;9.43;;;7.33;;
15358;SDS011;7779;49.596;11.070;2023-03-01T15:20:04;8.13;;;6.10;;
15358;SDS011;7779;49.596;11.070;2023-03-01T15:22:43;8.30;;;6.37;;
15358;SDS011;7779;49.596;11.070;2023-03-01T15:25:14;9.03;;;6.63;;
15358;SDS011;7779;49.596;11.070;2023-03-01T15:27:46;9.07;;;6.50;;
15358;SDS011;7779;49.596;11.070;2023-03-01T15:30:18;7.03;;;6.33;;
15358;SDS011;7779;49.596;11.070;2023-03-01T15:35:48;9.37;;;6.30;;
15358;SDS011;7779;49.596;11.070;2023-03-01T15:41:23;7.27;;;6.10;;
15358;SDS011;7779;49.596;11.070;2023-03-01T15:44:14;9.73;;;6.73;;
15358;SDS011;7779;49.596;11.070;2023-03-01T15:46:56;12.93;;;7.03;;
15358;SDS011;7779;49.596;11.070;2023-03-01T15:52:13;10.97;;;6.60;;
15358;SDS011;7779;49.596;11.070;2023-03-01T15:54:54;8.07;;;6.60;;
15358;SDS011;7779;49.596;11.070;2023-03-01T15:57:29;9.27;;;7.13;;
15358;SDS011;7779;49.596;11.070;2023-03-01T15:59:54;10.97;;;6.73;;
15358;SDS011;7779;49.596;11.070;2023-03-01T16:02:21;8.73;;;6.80;;
15358;SDS011;7779;49.596;11.070;2023-03-01T16:04:49;10.10;;;7.37;;
15358;SDS011;7779;49.596;11.070;2023-03-01T16:07:15;10.23;;;7.30;;
15358;SDS011;7779;49.596;11.070;2023-03-01T16:09:41;11.63;;;7.67;;
15358;SDS011;7779;49.596;11.070;2023-03-01T16:12:13;11.10;;;8.00;;
15358;SDS011;7779;49.596;11.070;2023-03-01T16:14:41;13.30;;;7.47;;
15358;SDS011;7779;49.596;11.070;2023-03-01T16:17:07;11.30;;;7.53;;
15358;SDS011;7779;49.596;11.070;2023-03-01T16:19:35;10.30;;;7.50;;
15358;SDS011;7779;49.596;11.070;2023-03-01T16:22:02;11.13;;;7.93;;
15358;SDS011;7779;49.596;11.070;2023-03-01T16:24:28;9.93;;;7.40;;
15358;SDS011;7779;49.596;11.070;2023-03-01T16:26:54;10.17;;;8.30;;
15358;SDS011;7779;49.596;11.070;2023-03-01T16:29:21;10.30;;;7.70;;
15358;SDS011;7779;49.596;11.070;2023-03-01T16:31:46;11.00;;;8.00;;
15358;SDS011;7779;49.596;11.070;2023-03-01T16:34:12;9.60;;;7.93;;
15358;SDS011;7779;49.596;11.070;2023-03-01T16:36:38;11.70;;;8.17;;
15358;SDS011;7779;49.596;11.070;2023-03-01T16:39:04;12.80;;;8.50;;
15358;SDS011;7779;49.596;11.070;2023-03-01T16:41:31;11.00;;;8.00;;
15358;SDS011;7779;49.596;11.070;2023-03-01T16:43:56;13.17;;;8.97;;
15358;SDS011;7779;49.596;11.070;2023-03-01T16:46:23;12.20;;;8.20;;
15358;SDS011;7779;49.596;11.070;2023-03-01T16:48:53;10.00;;;8.00;;
15358;SDS011;7779;49.596;11.070;2023-03-01T16:51:20;14.83;;;8.43;;
15358;SDS011;7779;49.596;11.070;2023-03-01T16:53:47;10.37;;;8.10;;
15358;SDS011;7779;49.596;11.070;2023-03-01T16:56:15;10.80;;;7.50;;
15358;SDS011;7779;49.596;11.070;2023-03-01T16:58:42;11.70;;;7.93;;
15358;SDS011;7779;49.596;11.070;2023-03-01T17:03:42;11.07;;;8.07;;
15358;SDS011;7779;49.596;11.070;2023-03-01T17:06:10;10.23;;;7.70;;
15358;SDS011;7779;49.596;11.070;2023-03-01T17:08:39;13.33;;;8.27;;